Terminal Aerodrome Forecast
Issued by NWS Cleveland, OH

Current Version | Previous Version | Text Only | Print | Product List | Glossary On
Versions: 1 2 3 4 5 6 7 8 9 10 11 12 13 14 15
878
FTUS41 KCLE 090732 AAA
TAFMFD
TAF AMD
KMFD 090732Z 0908/1006 26014KT P6SM OVC012
      TEMPO 0908/0912 3SM -SHSN BKN008
     FM091200 26012G18KT 5SM -SHSN BKN008 OVC012
     FM091700 26011KT P6SM -SN OVC025=

USA.gov is the U.S. government's official web portal to all federal, state and local government web resources and services.